Estación Meteorológica Peña el Pijo (Robertgarden) [ 07/19/18 09:24:16 CEST ]

Fecha Hora Presion(HPa) Temp (°C) Humedad % Rocio (°C) Viento ( m/s) Direccion Lluvia 1Hora(mm) Lluvia 24H(mm) LLuvia Total(mm)
2018-Jul-15 01:01:43 1013.000 17.1 45 5.0         269.36
2018-Jul-15 02:01:40 1012.800 15.4 49 4.7         269.36
2018-Jul-15 03:02:07 1012.400 14.1 55 5.2         269.36
2018-Jul-15 04:02:35 1012.000 12.8 59 5.0         269.36
2018-Jul-15 05:02:10 1012.100 11.9 62 4.8         269.36
2018-Jul-15 06:01:45 1011.800 11.3 64 4.7         269.36
2018-Jul-15 07:01:35 1011.900 10.9 64 4.3         269.36
2018-Jul-15 08:01:41 1012.000 12.3 63 5.4         269.36
2018-Jul-15 09:01:42 1012.100 18.8 51 8.5         269.36
2018-Jul-15 10:01:35 1011.900 26.1 35 9.2         269.36
2018-Jul-15 11:01:52 1011.400 30.8 23 7.1         269.36
2018-Jul-15 12:01:37 1011.200 33.2 22 8.5         269.36
2018-Jul-15 13:01:58 1010.800 33.5 23 9.3         269.36
2018-Jul-15 14:01:11 1010.200 33.6 22 8.8         269.36
2018-Jul-15 15:01:26 1009.700 33.9 21 8.4         269.36
2018-Jul-15 16:01:57 1009.400 34.5 21 8.9 3.1 S     269.36
2018-Jul-15 17:01:52 1009.100 34.1 21 8.6         269.36
2018-Jul-15 18:01:48 1008.800 33.7 22 8.9         269.36
2018-Jul-15 19:01:43 1008.800 31.6 24 8.4         269.36
2018-Jul-15 20:01:57 1009.100 25.9 33 8.3         269.36
2018-Jul-15 21:01:45 1009.800 24.1 37 8.4         269.36
2018-Jul-15 22:01:57 1010.800 21.8 41 7.9         269.36
2018-Jul-15 23:01:47 1011.000 19.9 46 7.9         269.36

Temperatura Máxima:34°    Temperatura Mínima:10°
Presión Máxima:1013.000 Hpa    Presión Mínima:1008.800 Hpa


Volver